createdAt,value
2022-10-26T00:00:25.603Z,4.88
2022-10-26T00:02:54.553Z,4.92
2022-10-26T00:05:22.102Z,4.96
2022-10-26T00:07:49.123Z,5.08
2022-10-26T00:10:15.869Z,5.26
2022-10-26T00:12:42.522Z,5.25
2022-10-26T00:15:09.626Z,4.87
2022-10-26T00:17:36.274Z,4.92
2022-10-26T00:20:02.883Z,4.63
2022-10-26T00:22:29.484Z,4.36
2022-10-26T00:24:56.089Z,4.77
2022-10-26T00:27:22.740Z,5.01
2022-10-26T00:29:49.280Z,4.97
2022-10-26T00:32:15.856Z,4.77
2022-10-26T00:34:42.456Z,4.83
2022-10-26T00:37:09.734Z,4.74
2022-10-26T00:39:36.715Z,4.80
2022-10-26T00:42:03.500Z,5.03
2022-10-26T00:44:48.256Z,5.08
2022-10-26T00:47:34.636Z,5.03
2022-10-26T00:50:07.257Z,4.96
2022-10-26T00:52:34.563Z,5.07
2022-10-26T00:55:01.716Z,4.52
2022-10-26T00:57:28.788Z,4.57
2022-10-26T00:59:58.025Z,4.36
2022-10-26T01:02:24.957Z,4.39
2022-10-26T01:04:52.799Z,4.76
2022-10-26T01:07:19.776Z,4.62
2022-10-26T01:09:46.755Z,4.53
2022-10-26T01:12:13.421Z,4.70
2022-10-26T01:14:40.112Z,4.94
2022-10-26T01:17:37.167Z,5.03
2022-10-26T01:20:28.332Z,5.03
2022-10-26T01:23:21.697Z,4.70
2022-10-26T01:26:09.837Z,4.48
2022-10-26T01:28:42.516Z,4.55
2022-10-26T01:31:12.972Z,4.25
2022-10-26T01:33:47.682Z,4.38
2022-10-26T01:39:15.020Z,4.71
2022-10-26T01:41:56.615Z,4.78
2022-10-26T01:44:39.558Z,4.82
2022-10-26T01:47:07.770Z,4.80
2022-10-26T01:49:38.165Z,4.44
2022-10-26T01:52:05.108Z,4.85
2022-10-26T01:57:07.234Z,4.20
2022-10-26T01:59:57.213Z,4.83
2022-10-26T02:02:30.117Z,4.83
2022-10-26T02:05:14.900Z,4.94
2022-10-26T02:08:27.723Z,4.54
2022-10-26T02:11:07.203Z,4.45
2022-10-26T02:13:44.959Z,4.59
2022-10-26T02:16:47.365Z,4.97
2022-10-26T02:19:41.510Z,4.92
2022-10-26T02:22:17.917Z,4.62
2022-10-26T02:24:46.852Z,5.02
2022-10-26T02:27:20.266Z,4.86
2022-10-26T02:29:50.451Z,4.71
2022-10-26T02:32:18.780Z,4.66
2022-10-26T02:34:48.951Z,4.75
2022-10-26T02:37:19.200Z,4.91
2022-10-26T02:39:48.821Z,4.77
2022-10-26T02:42:15.722Z,4.70
2022-10-26T02:44:48.495Z,4.83
2022-10-26T02:47:15.252Z,4.73
2022-10-26T02:49:42.801Z,4.57
2022-10-26T02:52:26.912Z,4.55
2022-10-26T02:55:03.230Z,4.72
2022-10-26T02:57:39.654Z,4.77
2022-10-26T03:02:48.396Z,4.80
2022-10-26T03:05:38.635Z,4.71
2022-10-26T03:08:05.437Z,4.44
2022-10-26T03:10:33.641Z,4.89
2022-10-26T03:13:00.208Z,4.71
2022-10-26T03:15:27.265Z,4.81
2022-10-26T03:17:53.832Z,5.18
2022-10-26T03:20:20.495Z,5.03
2022-10-26T03:22:48.641Z,5.16
2022-10-26T03:25:18.226Z,4.95
2022-10-26T03:27:46.379Z,5.18
2022-10-26T03:30:13.411Z,5.23
2022-10-26T03:32:40.040Z,5.17
2022-10-26T03:35:06.950Z,5.08
2022-10-26T03:37:33.516Z,5.21
2022-10-26T03:40:00.113Z,4.87
2022-10-26T03:42:27.969Z,5.17
2022-10-26T03:44:54.507Z,4.99
2022-10-26T03:47:21.067Z,4.70
2022-10-26T03:49:47.649Z,4.52
2022-10-26T03:52:14.329Z,4.87
2022-10-26T03:54:40.889Z,5.03
2022-10-26T03:57:07.512Z,4.73
2022-10-26T03:59:34.078Z,4.87
2022-10-26T04:02:00.766Z,5.16
2022-10-26T04:04:27.581Z,5.27
2022-10-26T04:06:54.509Z,5.06
2022-10-26T04:09:21.113Z,5.14
2022-10-26T04:11:47.732Z,5.25
2022-10-26T04:14:14.389Z,5.18
2022-10-26T04:16:41.144Z,5.55
2022-10-26T04:19:07.916Z,5.12
2022-10-26T04:21:35.400Z,5.18
2022-10-26T04:24:02.400Z,5.37
2022-10-26T04:26:29.242Z,5.09
2022-10-26T04:28:55.951Z,4.98
2022-10-26T04:31:22.538Z,5.09
2022-10-26T04:33:49.149Z,5.27
2022-10-26T04:36:15.721Z,5.37
2022-10-26T04:38:42.341Z,5.46
2022-10-26T04:41:08.903Z,5.29
2022-10-26T04:43:35.501Z,5.48
2022-10-26T04:46:02.081Z,4.94
2022-10-26T04:48:28.916Z,5.25
2022-10-26T04:50:59.236Z,5.20
2022-10-26T04:53:26.370Z,5.40
2022-10-26T04:56:00.315Z,5.55
2022-10-26T04:58:28.145Z,5.75
2022-10-26T05:00:55.240Z,5.61
2022-10-26T05:03:24.837Z,5.51
2022-10-26T05:05:51.486Z,5.81
2022-10-26T05:08:18.107Z,5.57
2022-10-26T05:10:49.556Z,5.74
2022-10-26T05:13:16.843Z,5.50
2022-10-26T05:15:43.551Z,5.66
2022-10-26T05:18:10.223Z,5.92
2022-10-26T05:20:37.264Z,6.38
2022-10-26T05:23:06.865Z,6.57
2022-10-26T05:25:36.138Z,6.47
2022-10-26T05:28:05.019Z,6.49
2022-10-26T05:30:32.157Z,6.28
2022-10-26T05:33:01.000Z,6.32
2022-10-26T05:35:28.107Z,6.13
2022-10-26T05:37:54.760Z,6.19
2022-10-26T05:40:22.096Z,5.90
2022-10-26T05:42:49.155Z,6.15
2022-10-26T05:45:18.128Z,6.31
2022-10-26T05:47:46.195Z,6.27
2022-10-26T05:50:14.257Z,6.30
2022-10-26T05:52:45.987Z,5.79
2022-10-26T05:55:15.330Z,6.27
2022-10-26T05:57:42.900Z,4.98
2022-10-26T06:00:16.098Z,6.07
2022-10-26T06:02:59.612Z,6.12
2022-10-26T06:05:34.762Z,5.95
2022-10-26T06:08:01.660Z,5.80
2022-10-26T06:10:28.628Z,6.04
2022-10-26T06:12:55.509Z,6.19
2022-10-26T06:15:22.595Z,5.98
2022-10-26T06:18:14.339Z,6.29
2022-10-26T06:21:01.470Z,6.04
2022-10-26T06:23:46.722Z,6.07
2022-10-26T06:26:16.464Z,6.46
2022-10-26T06:29:07.992Z,6.49
2022-10-26T06:31:34.671Z,6.25
2022-10-26T06:34:01.465Z,6.26
2022-10-26T06:36:29.101Z,6.37
2022-10-26T06:39:05.856Z,6.55
2022-10-26T06:41:34.651Z,6.58
2022-10-26T06:44:05.065Z,6.53
2022-10-26T06:46:51.581Z,6.21
2022-10-26T06:49:35.784Z,6.77
2022-10-26T06:52:15.438Z,6.30
2022-10-26T06:54:49.753Z,6.91
2022-10-26T06:57:18.664Z,6.75
2022-10-26T06:59:54.252Z,6.71
2022-10-26T07:02:21.172Z,7.00
2022-10-26T07:04:48.299Z,6.81
2022-10-26T07:07:27.401Z,6.94
2022-10-26T07:09:54.352Z,6.80
2022-10-26T07:12:21.008Z,7.14
2022-10-26T07:14:48.074Z,7.10
2022-10-26T07:17:15.045Z,6.96
2022-10-26T07:19:44.681Z,6.90
2022-10-26T07:22:11.443Z,6.83
2022-10-26T07:24:38.094Z,6.92
2022-10-26T07:27:04.798Z,6.89
2022-10-26T07:29:31.496Z,7.07
2022-10-26T07:31:58.123Z,7.25
2022-10-26T07:34:24.749Z,7.17
2022-10-26T07:36:51.666Z,7.04
2022-10-26T07:39:18.437Z,6.86
2022-10-26T07:41:45.807Z,6.65
2022-10-26T07:44:12.404Z,6.62
2022-10-26T07:46:39.032Z,7.65
2022-10-26T07:49:05.612Z,7.39
2022-10-26T07:51:32.300Z,7.34
2022-10-26T07:53:58.930Z,7.11
2022-10-26T07:56:25.545Z,7.86
2022-10-26T07:58:53.390Z,7.61
2022-10-26T08:01:20.596Z,8.21
2022-10-26T08:03:47.345Z,8.28
2022-10-26T08:06:14.490Z,7.83
2022-10-26T08:08:44.909Z,8.25
2022-10-26T08:11:14.956Z,8.36
2022-10-26T08:13:42.008Z,8.03
2022-10-26T08:16:09.251Z,8.59
2022-10-26T08:18:35.920Z,8.15
2022-10-26T08:21:11.007Z,8.82
2022-10-26T08:23:39.591Z,7.78
2022-10-26T08:26:06.662Z,8.56
2022-10-26T08:28:33.463Z,8.82
2022-10-26T08:31:00.120Z,9.11
2022-10-26T08:33:26.732Z,9.04
2022-10-26T08:35:59.064Z,8.77
2022-10-26T08:38:25.888Z,9.06
2022-10-26T08:40:53.717Z,9.48
2022-10-26T08:43:26.756Z,9.58
2022-10-26T08:46:35.699Z,9.56
2022-10-26T08:49:20.346Z,9.62
2022-10-26T08:51:49.451Z,9.54
2022-10-26T08:54:24.573Z,9.36
2022-10-26T08:56:58.359Z,9.29
2022-10-26T08:59:37.310Z,9.38
2022-10-26T09:02:10.169Z,9.50
2022-10-26T09:04:37.086Z,9.64
2022-10-26T09:07:41.476Z,10.04
2022-10-26T09:11:05.256Z,10.13
2022-10-26T09:13:50.247Z,10.00
2022-10-26T09:16:54.153Z,9.96
2022-10-26T09:19:29.425Z,10.18
2022-10-26T09:22:22.406Z,10.31
2022-10-26T09:24:55.926Z,10.16
2022-10-26T09:27:39.973Z,10.36
2022-10-26T09:30:19.088Z,10.42
2022-10-26T09:32:52.449Z,10.26
2022-10-26T09:35:23.115Z,10.59
2022-10-26T09:38:04.030Z,10.70
2022-10-26T09:40:48.734Z,11.05
2022-10-26T09:43:29.830Z,11.05
2022-10-26T09:45:56.510Z,10.69
2022-10-26T09:48:49.793Z,10.97
2022-10-26T09:51:17.458Z,11.67
2022-10-26T09:53:44.103Z,11.62
2022-10-26T09:56:13.191Z,11.46
2022-10-26T09:58:48.514Z,11.48
2022-10-26T10:01:42.685Z,11.92
2022-10-26T10:04:24.348Z,12.09
2022-10-26T10:07:01.576Z,11.58
2022-10-26T10:09:28.150Z,12.10
2022-10-26T10:12:01.214Z,12.33
2022-10-26T10:14:30.106Z,11.95
2022-10-26T10:17:08.384Z,12.24
2022-10-26T10:19:37.434Z,12.11
2022-10-26T10:22:23.544Z,12.27
2022-10-26T10:25:01.493Z,12.50
2022-10-26T10:27:30.470Z,12.39
2022-10-26T10:30:02.987Z,12.69
2022-10-26T10:32:35.742Z,12.85
2022-10-26T10:35:23.972Z,13.13
2022-10-26T10:37:51.896Z,13.69
2022-10-26T10:40:41.062Z,14.03
2022-10-26T10:43:14.563Z,13.56
2022-10-26T10:45:46.861Z,13.95
2022-10-26T10:48:13.460Z,14.04
2022-10-26T10:51:05.398Z,14.03
2022-10-26T10:53:46.996Z,14.22
2022-10-26T10:56:35.457Z,14.35
2022-10-26T10:59:20.821Z,14.43
2022-10-26T11:02:06.113Z,14.42
2022-10-26T11:04:54.444Z,14.46
2022-10-26T11:07:22.378Z,13.84
2022-10-26T11:09:51.595Z,14.17
2022-10-26T11:15:14.466Z,14.56
2022-10-26T11:18:01.702Z,14.64
2022-10-26T11:20:30.771Z,14.41
2022-10-26T11:23:09.498Z,14.49
2022-10-26T11:25:52.647Z,14.35
2022-10-26T11:28:34.506Z,14.50
2022-10-26T11:31:06.159Z,14.35
2022-10-26T11:33:44.627Z,13.88
2022-10-26T11:36:21.195Z,14.28
2022-10-26T11:38:57.091Z,14.55
2022-10-26T11:41:40.573Z,14.51
2022-10-26T11:44:29.440Z,14.60
2022-10-26T11:47:01.720Z,14.40
2022-10-26T11:49:38.196Z,14.15
2022-10-26T11:52:28.334Z,14.46
2022-10-26T11:54:58.548Z,14.37
2022-10-26T11:57:28.080Z,14.61
2022-10-26T11:59:59.788Z,14.35
2022-10-26T12:02:26.811Z,14.49
2022-10-26T12:05:19.152Z,14.50
2022-10-26T12:07:55.358Z,14.38
2022-10-26T12:10:26.017Z,14.09
2022-10-26T12:13:15.249Z,14.41
2022-10-26T12:16:03.465Z,14.68
2022-10-26T12:19:02.761Z,14.77
2022-10-26T12:21:31.713Z,14.53
2022-10-26T12:24:00.620Z,14.58
2022-10-26T12:26:27.225Z,14.55
2022-10-26T12:29:02.903Z,14.61
2022-10-26T12:31:32.923Z,14.73
2022-10-26T12:34:00.523Z,14.42
2022-10-26T12:36:49.133Z,14.69
2022-10-26T12:39:38.682Z,14.74
2022-10-26T12:42:05.233Z,14.85
2022-10-26T12:44:37.840Z,14.88
2022-10-26T12:47:06.424Z,15.04
2022-10-26T12:50:01.126Z,15.10
2022-10-26T12:52:31.852Z,15.41
2022-10-26T12:55:32.305Z,15.50
2022-10-26T12:58:01.977Z,15.95
2022-10-26T13:00:29.162Z,17.11
2022-10-26T13:03:04.618Z,18.09
2022-10-26T13:05:34.268Z,18.50
2022-10-26T13:08:08.309Z,18.88
2022-10-26T13:10:37.259Z,19.09
2022-10-26T13:13:07.273Z,18.25
2022-10-26T13:15:57.461Z,17.88
2022-10-26T13:18:24.475Z,18.46
2022-10-26T13:21:14.925Z,19.09
2022-10-26T13:23:55.771Z,19.36
2022-10-26T13:26:25.312Z,19.78
2022-10-26T13:28:54.670Z,19.83
2022-10-26T13:31:24.288Z,20.58
2022-10-26T13:33:54.242Z,19.87
2022-10-26T13:36:53.419Z,18.43
2022-10-26T13:39:31.200Z,17.62
2022-10-26T13:42:00.295Z,17.24
2022-10-26T13:44:37.624Z,16.67
2022-10-26T13:47:12.319Z,16.08
2022-10-26T13:49:53.018Z,16.41
2022-10-26T13:52:34.888Z,16.27
2022-10-26T13:55:27.523Z,16.27
2022-10-26T13:58:03.129Z,16.11
2022-10-26T14:00:29.990Z,16.07
2022-10-26T14:02:56.766Z,15.59
2022-10-26T14:05:23.880Z,16.05
2022-10-26T14:08:00.028Z,15.70
2022-10-26T14:10:37.351Z,16.40
2022-10-26T14:13:08.812Z,15.88
2022-10-26T14:15:36.297Z,15.72
2022-10-26T14:18:04.391Z,16.24
2022-10-26T14:20:32.428Z,16.24
2022-10-26T14:22:59.128Z,15.78
2022-10-26T14:25:41.703Z,15.43
2022-10-26T14:28:27.030Z,15.76
2022-10-26T14:30:54.098Z,15.52
2022-10-26T14:33:27.606Z,15.46
2022-10-26T14:35:55.281Z,15.59
2022-10-26T14:38:30.197Z,15.48
2022-10-26T14:40:57.989Z,15.40
2022-10-26T14:43:26.099Z,15.44
2022-10-26T14:45:54.555Z,15.41
2022-10-26T14:48:31.456Z,15.18
2022-10-26T14:50:59.949Z,15.07
2022-10-26T14:53:39.355Z,15.26
2022-10-26T14:56:20.868Z,15.47
2022-10-26T14:58:47.819Z,16.12
2022-10-26T15:01:23.854Z,17.32
2022-10-26T15:03:58.323Z,17.62
2022-10-26T15:06:27.936Z,17.48
2022-10-26T15:08:59.747Z,17.87
2022-10-26T15:11:27.545Z,17.68
2022-10-26T15:13:55.456Z,17.62
2022-10-26T15:16:25.413Z,17.67
2022-10-26T15:18:56.156Z,16.70
2022-10-26T15:21:27.290Z,16.59
2022-10-26T15:23:55.976Z,16.25
2022-10-26T15:26:23.647Z,15.89
2022-10-26T15:28:50.478Z,15.59
2022-10-26T15:31:17.066Z,15.68
2022-10-26T15:33:52.916Z,15.34
2022-10-26T15:36:22.071Z,15.18
2022-10-26T15:38:48.895Z,14.76
2022-10-26T15:41:31.662Z,14.75
2022-10-26T15:44:01.486Z,14.66
2022-10-26T15:46:33.721Z,14.76
2022-10-26T15:49:03.295Z,14.60
2022-10-26T15:51:30.320Z,14.65
2022-10-26T15:54:03.425Z,14.30
2022-10-26T15:56:31.019Z,14.34
2022-10-26T15:58:58.328Z,14.35
2022-10-26T16:01:27.387Z,14.24
2022-10-26T16:03:55.167Z,14.06
2022-10-26T16:06:27.422Z,13.78
2022-10-26T16:08:56.710Z,13.59
2022-10-26T16:11:23.563Z,13.57
2022-10-26T16:16:18.693Z,13.80
2022-10-26T16:18:46.040Z,13.81
2022-10-26T16:21:14.352Z,13.71
2022-10-26T16:23:42.360Z,13.76
2022-10-26T16:26:09.414Z,13.50
2022-10-26T16:28:36.949Z,13.23
2022-10-26T16:31:06.348Z,13.40
2022-10-26T16:33:35.209Z,13.77
2022-10-26T16:36:02.446Z,13.65
2022-10-26T16:38:31.578Z,13.65
2022-10-26T16:41:06.679Z,13.52
2022-10-26T16:43:36.270Z,13.61
2022-10-26T16:46:11.653Z,13.68
2022-10-26T16:48:39.596Z,13.63
2022-10-26T16:51:08.610Z,13.55
2022-10-26T16:53:35.762Z,12.70
2022-10-26T16:56:11.495Z,13.29
2022-10-26T16:58:39.069Z,13.23
2022-10-26T17:01:07.081Z,13.21
2022-10-26T17:03:34.153Z,13.31
2022-10-26T17:06:02.772Z,13.41
2022-10-26T17:08:30.675Z,13.32
2022-10-26T17:11:03.932Z,13.22
2022-10-26T17:13:31.048Z,13.30
2022-10-26T17:16:05.659Z,12.85
2022-10-26T17:18:32.476Z,13.07
2022-10-26T17:20:59.133Z,13.03
2022-10-26T17:23:26.220Z,13.14
2022-10-26T17:25:53.225Z,12.68
2022-10-26T17:28:19.894Z,12.99
2022-10-26T17:30:46.562Z,12.94
2022-10-26T17:33:13.263Z,12.85
2022-10-26T17:35:39.990Z,12.81
2022-10-26T17:38:06.639Z,12.65
2022-10-26T17:40:33.402Z,12.96
2022-10-26T17:43:00.453Z,12.64
2022-10-26T17:45:27.153Z,12.81
2022-10-26T17:47:54.054Z,12.62
2022-10-26T17:50:21.058Z,12.82
2022-10-26T17:52:47.780Z,12.45
2022-10-26T17:55:14.649Z,12.34
2022-10-26T17:57:41.524Z,12.53
2022-10-26T18:00:08.862Z,12.71
2022-10-26T18:02:41.179Z,12.78
2022-10-26T18:05:08.338Z,12.63
2022-10-26T18:07:35.268Z,12.60
2022-10-26T18:10:19.537Z,12.75
2022-10-26T18:12:48.894Z,12.33
2022-10-26T18:15:16.057Z,12.29
2022-10-26T18:17:42.787Z,12.48
2022-10-26T18:20:09.915Z,12.29
2022-10-26T18:22:36.584Z,12.39
2022-10-26T18:25:04.679Z,11.83
2022-10-26T18:27:31.306Z,12.05
2022-10-26T18:29:58.064Z,12.21
2022-10-26T18:32:24.689Z,12.31
2022-10-26T18:34:51.495Z,12.38
2022-10-26T18:37:18.176Z,12.18
2022-10-26T18:39:44.806Z,11.88
2022-10-26T18:42:11.531Z,12.42
2022-10-26T18:44:38.237Z,11.95
2022-10-26T18:47:05.054Z,12.26
2022-10-26T18:49:31.789Z,11.94
2022-10-26T18:51:59.248Z,12.18
2022-10-26T18:54:28.275Z,12.09
2022-10-26T18:56:57.639Z,12.02
2022-10-26T18:59:24.349Z,12.27
2022-10-26T19:01:51.251Z,12.11
2022-10-26T19:04:19.199Z,11.57
2022-10-26T19:06:47.817Z,11.85
2022-10-26T19:09:16.509Z,12.05
2022-10-26T19:11:43.442Z,11.97
2022-10-26T19:14:10.862Z,11.76
2022-10-26T19:16:47.218Z,11.80
2022-10-26T19:19:16.388Z,11.39
2022-10-26T19:21:44.428Z,11.25
2022-10-26T19:24:15.972Z,11.61
2022-10-26T19:26:44.161Z,11.06
2022-10-26T19:29:15.315Z,10.32
2022-10-26T19:31:44.904Z,11.69
2022-10-26T19:34:13.082Z,11.66
2022-10-26T19:36:43.846Z,11.28
2022-10-26T19:39:10.509Z,11.02
2022-10-26T19:41:37.371Z,11.37
2022-10-26T19:44:04.568Z,11.09
2022-10-26T19:46:32.809Z,10.84
2022-10-26T19:49:01.392Z,10.62
2022-10-26T19:51:30.421Z,10.95
2022-10-26T19:54:02.229Z,10.73
2022-10-26T19:56:30.671Z,10.98
2022-10-26T19:58:57.405Z,10.97
2022-10-26T20:01:24.195Z,10.79
2022-10-26T20:03:51.021Z,10.71
2022-10-26T20:06:18.427Z,10.89
2022-10-26T20:08:47.682Z,11.03
2022-10-26T20:11:16.657Z,11.08
2022-10-26T20:13:45.271Z,10.84
2022-10-26T20:16:16.414Z,10.81
2022-10-26T20:18:47.557Z,11.13
2022-10-26T20:21:17.032Z,11.04
2022-10-26T20:23:44.385Z,10.87
2022-10-26T20:26:18.124Z,10.60
2022-10-26T20:28:47.852Z,10.65
2022-10-26T20:31:14.752Z,10.84
2022-10-26T20:33:41.466Z,10.78
2022-10-26T20:36:08.282Z,10.55
2022-10-26T20:38:35.374Z,10.82
2022-10-26T20:41:06.113Z,10.75
2022-10-26T20:43:39.107Z,10.68
2022-10-26T20:46:07.050Z,10.78
2022-10-26T20:48:34.244Z,10.87
2022-10-26T20:51:07.742Z,10.73
2022-10-26T20:53:48.844Z,10.93
2022-10-26T20:56:26.291Z,10.82
2022-10-26T20:58:55.970Z,10.99
2022-10-26T21:01:31.353Z,10.73
2022-10-26T21:04:00.654Z,10.93
2022-10-26T21:06:28.267Z,10.77
2022-10-26T21:08:56.552Z,10.88
2022-10-26T21:11:24.968Z,10.92
2022-10-26T21:13:53.810Z,10.97
2022-10-26T21:18:49.468Z,11.10
2022-10-26T21:21:16.196Z,10.96
2022-10-26T21:23:42.915Z,10.99
2022-10-26T21:26:10.004Z,11.14
2022-10-26T21:28:46.982Z,10.93
2022-10-26T21:31:16.426Z,10.59
2022-10-26T21:33:43.468Z,10.30
2022-10-26T21:36:12.350Z,10.25
2022-10-26T21:38:40.609Z,10.24
2022-10-26T21:41:18.413Z,9.84
2022-10-26T21:43:48.088Z,9.69
2022-10-26T21:46:16.476Z,10.07
2022-10-26T21:48:43.559Z,10.24
2022-10-26T21:51:18.804Z,9.91
2022-10-26T21:53:45.532Z,9.93
2022-10-26T21:56:17.112Z,10.12
2022-10-26T21:58:44.513Z,9.53
2022-10-26T22:01:13.214Z,9.45
2022-10-26T22:03:40.958Z,9.44
2022-10-26T22:06:10.155Z,9.39
2022-10-26T22:08:37.063Z,9.73
2022-10-26T22:11:07.816Z,9.73
2022-10-26T22:13:35.305Z,9.39
2022-10-26T22:16:10.750Z,9.71
2022-10-26T22:18:39.285Z,9.64
2022-10-26T22:21:07.045Z,9.40
2022-10-26T22:23:35.023Z,9.40
2022-10-26T22:26:09.717Z,9.52
2022-10-26T22:28:41.589Z,9.15
2022-10-26T22:31:12.825Z,9.27
2022-10-26T22:33:40.066Z,9.15
2022-10-26T22:36:13.054Z,9.34
2022-10-26T22:38:40.664Z,9.06
2022-10-26T22:41:08.575Z,8.83
2022-10-26T22:43:35.373Z,9.29
2022-10-26T22:46:07.423Z,9.30
2022-10-26T22:48:35.076Z,9.31
2022-10-26T22:51:10.144Z,9.11
2022-10-26T22:53:36.996Z,9.30
2022-10-26T22:56:05.417Z,9.01
2022-10-26T22:58:32.063Z,9.04
2022-10-26T23:01:07.674Z,8.96
2022-10-26T23:03:35.186Z,9.08
2022-10-26T23:06:02.653Z,8.64
2022-10-26T23:08:29.785Z,8.97
2022-10-26T23:11:00.932Z,8.91
2022-10-26T23:13:28.401Z,8.87
2022-10-26T23:15:55.699Z,8.66
2022-10-26T23:18:22.879Z,8.72
2022-10-26T23:20:50.388Z,8.82
2022-10-26T23:23:17.706Z,8.67
2022-10-26T23:25:45.517Z,8.70
2022-10-26T23:28:12.293Z,8.55
2022-10-26T23:30:39.016Z,8.67
2022-10-26T23:33:05.870Z,8.49
2022-10-26T23:35:32.842Z,8.37
2022-10-26T23:38:00.215Z,8.49
2022-10-26T23:40:27.710Z,8.43
2022-10-26T23:42:54.498Z,8.87
2022-10-26T23:45:21.850Z,8.49
2022-10-26T23:47:48.935Z,8.50
2022-10-26T23:50:16.171Z,8.47
2022-10-26T23:52:49.535Z,8.46
2022-10-26T23:55:16.672Z,8.82
2022-10-26T23:57:43.328Z,8.84
